sensor_id;sensor_type;location;lat;lon;timestamp;temperature;humidity
40153;DHT22;26371;56.992;23.912;2023-04-06T00:00:06;1.80;99.90
40153;DHT22;26371;56.992;23.912;2023-04-06T00:02:36;1.80;99.90
40153;DHT22;26371;56.992;23.912;2023-04-06T00:05:04;1.80;99.90
40153;DHT22;26371;56.992;23.912;2023-04-06T00:07:35;1.80;99.90
40153;DHT22;26371;56.992;23.912;2023-04-06T00:10:04;1.80;99.90
40153;DHT22;26371;56.992;23.912;2023-04-06T00:12:34;1.90;99.90
40153;DHT22;26371;56.992;23.912;2023-04-06T00:15:03;1.90;99.90
40153;DHT22;26371;56.992;23.912;2023-04-06T00:17:32;1.90;99.90
40153;DHT22;26371;56.992;23.912;2023-04-06T00:20:01;1.90;99.90
40153;DHT22;26371;56.992;23.912;2023-04-06T00:22:30;1.90;99.90
40153;DHT22;26371;56.992;23.912;2023-04-06T00:24:58;2.00;99.90
40153;DHT22;26371;56.992;23.912;2023-04-06T00:27:26;2.00;99.90
40153;DHT22;26371;56.992;23.912;2023-04-06T00:29:57;2.00;99.90
40153;DHT22;26371;56.992;23.912;2023-04-06T00:32:25;2.10;99.90
40153;DHT22;26371;56.992;23.912;2023-04-06T00:34:54;2.10;99.90
40153;DHT22;26371;56.992;23.912;2023-04-06T00:37:23;2.10;99.90
40153;DHT22;26371;56.992;23.912;2023-04-06T00:39:51;2.10;99.90
40153;DHT22;26371;56.992;23.912;2023-04-06T00:42:21;2.10;99.90
40153;DHT22;26371;56.992;23.912;2023-04-06T00:44:53;2.10;99.90
40153;DHT22;26371;56.992;23.912;2023-04-06T00:47:23;2.10;99.90
40153;DHT22;26371;56.992;23.912;2023-04-06T00:49:53;2.10;99.90
40153;DHT22;26371;56.992;23.912;2023-04-06T00:52:21;2.10;99.90
40153;DHT22;26371;56.992;23.912;2023-04-06T00:54:50;2.10;99.90
40153;DHT22;26371;56.992;23.912;2023-04-06T00:57:20;2.20;99.90
40153;DHT22;26371;56.992;23.912;2023-04-06T00:59:53;2.20;99.90
40153;DHT22;26371;56.992;23.912;2023-04-06T01:02:24;2.20;99.90
40153;DHT22;26371;56.992;23.912;2023-04-06T01:04:54;2.20;99.90
40153;DHT22;26371;56.992;23.912;2023-04-06T01:07:31;2.20;99.90
40153;DHT22;26371;56.992;23.912;2023-04-06T01:10:22;2.20;99.90
40153;DHT22;26371;56.992;23.912;2023-04-06T01:12:52;2.20;99.90
40153;DHT22;26371;56.992;23.912;2023-04-06T01:15:39;2.20;99.90
40153;DHT22;26371;56.992;23.912;2023-04-06T01:18:14;2.20;99.90
40153;DHT22;26371;56.992;23.912;2023-04-06T01:20:50;2.20;99.90
40153;DHT22;26371;56.992;23.912;2023-04-06T01:23:22;2.20;99.90
40153;DHT22;26371;56.992;23.912;2023-04-06T01:25:50;2.20;99.90
40153;DHT22;26371;56.992;23.912;2023-04-06T01:28:19;2.20;99.90
40153;DHT22;26371;56.992;23.912;2023-04-06T01:31:10;2.30;99.90
40153;DHT22;26371;56.992;23.912;2023-04-06T01:33:43;2.30;99.90
40153;DHT22;26371;56.992;23.912;2023-04-06T01:36:15;2.30;99.90
40153;DHT22;26371;56.992;23.912;2023-04-06T01:38:49;2.30;99.90
40153;DHT22;26371;56.992;23.912;2023-04-06T01:41:22;2.30;99.90
40153;DHT22;26371;56.992;23.912;2023-04-06T01:43:52;2.30;99.90
40153;DHT22;26371;56.992;23.912;2023-04-06T01:46:26;2.30;99.90
40153;DHT22;26371;56.992;23.912;2023-04-06T01:48:54;2.40;99.90
40153;DHT22;26371;56.992;23.912;2023-04-06T01:51:32;2.40;99.90
40153;DHT22;26371;56.992;23.912;2023-04-06T01:54:04;2.40;99.90
40153;DHT22;26371;56.992;23.912;2023-04-06T01:56:51;2.40;99.90
40153;DHT22;26371;56.992;23.912;2023-04-06T01:59:58;2.40;99.90
40153;DHT22;26371;56.992;23.912;2023-04-06T02:02:39;2.30;99.90
40153;DHT22;26371;56.992;23.912;2023-04-06T02:05:15;2.30;99.90
40153;DHT22;26371;56.992;23.912;2023-04-06T02:07:44;2.30;99.90
40153;DHT22;26371;56.992;23.912;2023-04-06T02:10:18;2.30;99.90
40153;DHT22;26371;56.992;23.912;2023-04-06T02:12:47;2.30;99.90
40153;DHT22;26371;56.992;23.912;2023-04-06T02:15:23;2.30;99.90
40153;DHT22;26371;56.992;23.912;2023-04-06T02:17:51;2.30;99.90
40153;DHT22;26371;56.992;23.912;2023-04-06T02:20:20;2.30;99.90
40153;DHT22;26371;56.992;23.912;2023-04-06T02:22:49;2.30;99.90
40153;DHT22;26371;56.992;23.912;2023-04-06T02:25:19;2.30;99.90
40153;DHT22;26371;56.992;23.912;2023-04-06T02:27:48;2.20;99.90
40153;DHT22;26371;56.992;23.912;2023-04-06T02:30:16;2.20;99.90
40153;DHT22;26371;56.992;23.912;2023-04-06T02:32:45;2.30;99.90
40153;DHT22;26371;56.992;23.912;2023-04-06T02:35:13;2.20;99.90
40153;DHT22;26371;56.992;23.912;2023-04-06T02:37:43;2.20;99.90
40153;DHT22;26371;56.992;23.912;2023-04-06T02:40:12;2.20;99.90
40153;DHT22;26371;56.992;23.912;2023-04-06T02:42:41;2.20;99.90
40153;DHT22;26371;56.992;23.912;2023-04-06T02:45:11;2.20;99.90
40153;DHT22;26371;56.992;23.912;2023-04-06T02:47:43;2.20;99.90
40153;DHT22;26371;56.992;23.912;2023-04-06T02:50:14;2.30;99.90
40153;DHT22;26371;56.992;23.912;2023-04-06T02:52:52;2.20;99.90
40153;DHT22;26371;56.992;23.912;2023-04-06T02:55:21;2.20;99.90
40153;DHT22;26371;56.992;23.912;2023-04-06T02:57:51;2.30;99.90
40153;DHT22;26371;56.992;23.912;2023-04-06T03:00:25;2.20;99.90
40153;DHT22;26371;56.992;23.912;2023-04-06T03:02:53;2.30;99.90
40153;DHT22;26371;56.992;23.912;2023-04-06T03:05:23;2.30;99.90
40153;DHT22;26371;56.992;23.912;2023-04-06T03:07:51;2.30;99.90
40153;DHT22;26371;56.992;23.912;2023-04-06T03:10:33;2.30;99.90
40153;DHT22;26371;56.992;23.912;2023-04-06T03:13:03;2.30;99.90
40153;DHT22;26371;56.992;23.912;2023-04-06T03:15:50;2.30;99.90
40153;DHT22;26371;56.992;23.912;2023-04-06T03:18:21;2.30;99.90
40153;DHT22;26371;56.992;23.912;2023-04-06T03:20:50;2.20;99.90
40153;DHT22;26371;56.992;23.912;2023-04-06T03:23:24;2.30;99.90
40153;DHT22;26371;56.992;23.912;2023-04-06T03:25:57;2.30;99.90
40153;DHT22;26371;56.992;23.912;2023-04-06T03:28:29;2.30;99.90
40153;DHT22;26371;56.992;23.912;2023-04-06T03:31:02;2.30;99.90
40153;DHT22;26371;56.992;23.912;2023-04-06T03:33:43;2.30;99.90
40153;DHT22;26371;56.992;23.912;2023-04-06T03:36:18;2.20;99.90
40153;DHT22;26371;56.992;23.912;2023-04-06T03:38:47;2.30;99.90
40153;DHT22;26371;56.992;23.912;2023-04-06T03:41:15;2.30;99.90
40153;DHT22;26371;56.992;23.912;2023-04-06T03:43:53;2.30;99.90
40153;DHT22;26371;56.992;23.912;2023-04-06T03:46:22;2.30;99.90
40153;DHT22;26371;56.992;23.912;2023-04-06T03:48:53;2.30;99.90
40153;DHT22;26371;56.992;23.912;2023-04-06T03:51:23;2.30;99.90
40153;DHT22;26371;56.992;23.912;2023-04-06T03:53:52;2.30;99.90
40153;DHT22;26371;56.992;23.912;2023-04-06T03:56:20;2.30;99.90
40153;DHT22;26371;56.992;23.912;2023-04-06T03:58:49;2.30;99.90
40153;DHT22;26371;56.992;23.912;2023-04-06T04:01:21;2.30;99.90
40153;DHT22;26371;56.992;23.912;2023-04-06T04:03:50;2.30;99.90
40153;DHT22;26371;56.992;23.912;2023-04-06T04:06:19;2.30;99.90
40153;DHT22;26371;56.992;23.912;2023-04-06T04:08:48;2.30;99.90
40153;DHT22;26371;56.992;23.912;2023-04-06T04:11:16;2.20;99.90
40153;DHT22;26371;56.992;23.912;2023-04-06T04:13:50;2.30;99.90
40153;DHT22;26371;56.992;23.912;2023-04-06T04:16:18;2.30;99.90
40153;DHT22;26371;56.992;23.912;2023-04-06T04:18:48;2.30;99.90
40153;DHT22;26371;56.992;23.912;2023-04-06T04:21:17;2.30;99.90
40153;DHT22;26371;56.992;23.912;2023-04-06T04:23:45;2.30;99.90
40153;DHT22;26371;56.992;23.912;2023-04-06T04:26:14;2.30;99.90
40153;DHT22;26371;56.992;23.912;2023-04-06T04:28:44;2.40;99.90
40153;DHT22;26371;56.992;23.912;2023-04-06T04:31:14;2.40;99.90
40153;DHT22;26371;56.992;23.912;2023-04-06T04:33:50;2.40;99.90
40153;DHT22;26371;56.992;23.912;2023-04-06T04:36:25;2.30;99.90
40153;DHT22;26371;56.992;23.912;2023-04-06T04:38:56;2.40;99.90
40153;DHT22;26371;56.992;23.912;2023-04-06T04:41:31;2.40;99.90
40153;DHT22;26371;56.992;23.912;2023-04-06T04:44:00;2.40;99.90
40153;DHT22;26371;56.992;23.912;2023-04-06T04:46:29;2.40;99.90
40153;DHT22;26371;56.992;23.912;2023-04-06T04:49:00;2.40;99.90
40153;DHT22;26371;56.992;23.912;2023-04-06T04:51:30;2.40;99.90
40153;DHT22;26371;56.992;23.912;2023-04-06T04:54:11;2.40;99.90
40153;DHT22;26371;56.992;23.912;2023-04-06T04:56:42;2.40;99.90
40153;DHT22;26371;56.992;23.912;2023-04-06T04:59:30;2.40;99.90
40153;DHT22;26371;56.992;23.912;2023-04-06T05:02:05;2.40;99.90
40153;DHT22;26371;56.992;23.912;2023-04-06T05:04:45;2.40;99.90
40153;DHT22;26371;56.992;23.912;2023-04-06T05:07:19;2.40;99.90
40153;DHT22;26371;56.992;23.912;2023-04-06T05:09:50;2.40;99.90
40153;DHT22;26371;56.992;23.912;2023-04-06T05:12:19;2.40;99.90
40153;DHT22;26371;56.992;23.912;2023-04-06T05:15:02;2.40;99.90
40153;DHT22;26371;56.992;23.912;2023-04-06T05:17:31;2.40;99.90
40153;DHT22;26371;56.992;23.912;2023-04-06T05:20:01;2.40;99.90
40153;DHT22;26371;56.992;23.912;2023-04-06T05:22:34;2.40;99.90
40153;DHT22;26371;56.992;23.912;2023-04-06T05:25:07;2.40;99.90
40153;DHT22;26371;56.992;23.912;2023-04-06T05:27:37;2.40;99.90
40153;DHT22;26371;56.992;23.912;2023-04-06T05:30:15;2.40;99.90
40153;DHT22;26371;56.992;23.912;2023-04-06T05:32:45;2.40;99.90
40153;DHT22;26371;56.992;23.912;2023-04-06T05:35:15;2.40;99.90
40153;DHT22;26371;56.992;23.912;2023-04-06T05:37:49;2.50;99.90
40153;DHT22;26371;56.992;23.912;2023-04-06T05:40:21;2.50;99.90
40153;DHT22;26371;56.992;23.912;2023-04-06T05:42:50;2.50;99.90
40153;DHT22;26371;56.992;23.912;2023-04-06T05:45:19;2.50;99.90
40153;DHT22;26371;56.992;23.912;2023-04-06T05:47:53;2.50;99.90
40153;DHT22;26371;56.992;23.912;2023-04-06T05:50:26;2.50;99.90
40153;DHT22;26371;56.992;23.912;2023-04-06T05:52:56;2.50;99.90
40153;DHT22;26371;56.992;23.912;2023-04-06T05:55:30;2.50;99.90
40153;DHT22;26371;56.992;23.912;2023-04-06T05:58:15;2.50;99.90
40153;DHT22;26371;56.992;23.912;2023-04-06T06:00:46;2.50;99.90
40153;DHT22;26371;56.992;23.912;2023-04-06T06:03:16;2.50;99.90
40153;DHT22;26371;56.992;23.912;2023-04-06T06:05:52;2.50;99.90
40153;DHT22;26371;56.992;23.912;2023-04-06T06:08:28;2.50;99.90
40153;DHT22;26371;56.992;23.912;2023-04-06T06:11:01;2.50;99.90
40153;DHT22;26371;56.992;23.912;2023-04-06T06:13:30;2.60;99.90
40153;DHT22;26371;56.992;23.912;2023-04-06T06:15:59;2.60;99.90
40153;DHT22;26371;56.992;23.912;2023-04-06T06:18:35;2.60;99.90
40153;DHT22;26371;56.992;23.912;2023-04-06T06:21:05;2.60;99.90
40153;DHT22;26371;56.992;23.912;2023-04-06T06:23:34;2.60;99.90
40153;DHT22;26371;56.992;23.912;2023-04-06T06:26:02;2.60;99.90
40153;DHT22;26371;56.992;23.912;2023-04-06T06:28:31;2.60;99.90
40153;DHT22;26371;56.992;23.912;2023-04-06T06:31:00;2.60;99.90
40153;DHT22;26371;56.992;23.912;2023-04-06T06:33:29;2.60;99.90
40153;DHT22;26371;56.992;23.912;2023-04-06T06:35:58;2.60;99.90
40153;DHT22;26371;56.992;23.912;2023-04-06T06:38:30;2.60;99.90
40153;DHT22;26371;56.992;23.912;2023-04-06T06:40:59;2.60;99.90
40153;DHT22;26371;56.992;23.912;2023-04-06T06:43:32;2.60;99.90
40153;DHT22;26371;56.992;23.912;2023-04-06T06:46:06;2.70;99.90
40153;DHT22;26371;56.992;23.912;2023-04-06T06:48:34;2.70;99.90
40153;DHT22;26371;56.992;23.912;2023-04-06T06:51:03;2.70;99.90
40153;DHT22;26371;56.992;23.912;2023-04-06T06:53:33;2.70;99.90
40153;DHT22;26371;56.992;23.912;2023-04-06T06:56:01;2.70;99.90
40153;DHT22;26371;56.992;23.912;2023-04-06T06:58:30;2.70;99.90
40153;DHT22;26371;56.992;23.912;2023-04-06T07:00:59;2.70;99.90
40153;DHT22;26371;56.992;23.912;2023-04-06T07:03:30;2.80;99.90
40153;DHT22;26371;56.992;23.912;2023-04-06T07:05:59;2.80;99.90
40153;DHT22;26371;56.992;23.912;2023-04-06T07:08:27;2.80;99.90
40153;DHT22;26371;56.992;23.912;2023-04-06T07:10:57;2.80;99.90
40153;DHT22;26371;56.992;23.912;2023-04-06T07:13:25;2.80;99.90
40153;DHT22;26371;56.992;23.912;2023-04-06T07:15:57;2.80;99.90
40153;DHT22;26371;56.992;23.912;2023-04-06T07:18:26;2.90;99.90
40153;DHT22;26371;56.992;23.912;2023-04-06T07:20:55;2.90;99.90
40153;DHT22;26371;56.992;23.912;2023-04-06T07:23:24;2.90;99.90
40153;DHT22;26371;56.992;23.912;2023-04-06T07:25:52;2.90;99.90
40153;DHT22;26371;56.992;23.912;2023-04-06T07:28:23;3.00;99.90
40153;DHT22;26371;56.992;23.912;2023-04-06T07:30:53;3.00;99.90
40153;DHT22;26371;56.992;23.912;2023-04-06T07:33:22;3.00;99.90
40153;DHT22;26371;56.992;23.912;2023-04-06T07:35:50;3.00;99.90
40153;DHT22;26371;56.992;23.912;2023-04-06T07:38:19;3.00;99.90
40153;DHT22;26371;56.992;23.912;2023-04-06T07:40:49;3.10;99.90
40153;DHT22;26371;56.992;23.912;2023-04-06T07:43:18;3.10;99.90
40153;DHT22;26371;56.992;23.912;2023-04-06T07:45:49;3.10;99.90
40153;DHT22;26371;56.992;23.912;2023-04-06T07:48:17;3.10;99.90
40153;DHT22;26371;56.992;23.912;2023-04-06T07:50:45;3.10;99.90
40153;DHT22;26371;56.992;23.912;2023-04-06T07:53:15;3.20;99.90
40153;DHT22;26371;56.992;23.912;2023-04-06T07:55:45;3.20;99.90
40153;DHT22;26371;56.992;23.912;2023-04-06T08:00:42;3.40;99.90
40153;DHT22;26371;56.992;23.912;2023-04-06T08:03:12;3.50;99.90
40153;DHT22;26371;56.992;23.912;2023-04-06T08:05:40;3.50;99.90
40153;DHT22;26371;56.992;23.912;2023-04-06T08:08:09;3.50;99.90
40153;DHT22;26371;56.992;23.912;2023-04-06T08:10:38;3.50;99.90
40153;DHT22;26371;56.992;23.912;2023-04-06T08:13:06;3.50;99.90
40153;DHT22;26371;56.992;23.912;2023-04-06T08:15:35;3.60;99.90
40153;DHT22;26371;56.992;23.912;2023-04-06T08:18:03;3.60;99.90
40153;DHT22;26371;56.992;23.912;2023-04-06T08:20:33;3.60;99.90
40153;DHT22;26371;56.992;23.912;2023-04-06T08:23:02;3.70;99.90
40153;DHT22;26371;56.992;23.912;2023-04-06T08:25:30;3.80;99.90
40153;DHT22;26371;56.992;23.912;2023-04-06T08:27:59;3.90;99.90
40153;DHT22;26371;56.992;23.912;2023-04-06T08:30:27;4.00;99.90
40153;DHT22;26371;56.992;23.912;2023-04-06T08:32:56;4.10;99.90
40153;DHT22;26371;56.992;23.912;2023-04-06T08:35:24;4.10;99.90
40153;DHT22;26371;56.992;23.912;2023-04-06T08:37:55;4.10;99.90
40153;DHT22;26371;56.992;23.912;2023-04-06T08:40:24;4.00;99.90
40153;DHT22;26371;56.992;23.912;2023-04-06T08:42:54;4.00;99.90
40153;DHT22;26371;56.992;23.912;2023-04-06T08:45:23;4.10;99.90
40153;DHT22;26371;56.992;23.912;2023-04-06T08:47:51;4.10;99.90
40153;DHT22;26371;56.992;23.912;2023-04-06T08:50:20;4.10;99.90
40153;DHT22;26371;56.992;23.912;2023-04-06T08:52:49;4.20;99.90
40153;DHT22;26371;56.992;23.912;2023-04-06T08:55:19;4.20;99.90
40153;DHT22;26371;56.992;23.912;2023-04-06T08:57:47;4.20;99.90
40153;DHT22;26371;56.992;23.912;2023-04-06T09:00:16;4.20;99.90
40153;DHT22;26371;56.992;23.912;2023-04-06T09:02:45;4.10;99.90
40153;DHT22;26371;56.992;23.912;2023-04-06T09:05:14;4.20;99.90
40153;DHT22;26371;56.992;23.912;2023-04-06T09:07:43;4.20;99.90
40153;DHT22;26371;56.992;23.912;2023-04-06T09:10:12;4.20;99.90
40153;DHT22;26371;56.992;23.912;2023-04-06T09:12:43;4.20;99.90
40153;DHT22;26371;56.992;23.912;2023-04-06T09:15:17;4.20;99.90
40153;DHT22;26371;56.992;23.912;2023-04-06T09:17:49;4.20;99.90
40153;DHT22;26371;56.992;23.912;2023-04-06T09:20:22;4.20;99.90
40153;DHT22;26371;56.992;23.912;2023-04-06T09:22:52;4.20;99.90
40153;DHT22;26371;56.992;23.912;2023-04-06T09:25:21;4.20;99.90
40153;DHT22;26371;56.992;23.912;2023-04-06T09:27:59;4.10;99.90
40153;DHT22;26371;56.992;23.912;2023-04-06T09:30:28;4.10;99.90
40153;DHT22;26371;56.992;23.912;2023-04-06T09:32:56;4.00;99.90
40153;DHT22;26371;56.992;23.912;2023-04-06T09:35:26;4.00;99.90
40153;DHT22;26371;56.992;23.912;2023-04-06T09:37:57;4.00;99.90
40153;DHT22;26371;56.992;23.912;2023-04-06T09:40:25;4.10;99.90
40153;DHT22;26371;56.992;23.912;2023-04-06T09:42:56;4.10;99.90
40153;DHT22;26371;56.992;23.912;2023-04-06T09:45:27;4.00;99.90
40153;DHT22;26371;56.992;23.912;2023-04-06T09:47:57;4.10;99.90
40153;DHT22;26371;56.992;23.912;2023-04-06T09:50:26;4.00;99.90
40153;DHT22;26371;56.992;23.912;2023-04-06T09:52:54;4.00;99.90
40153;DHT22;26371;56.992;23.912;2023-04-06T09:55:26;4.10;99.90
40153;DHT22;26371;56.992;23.912;2023-04-06T09:57:58;4.10;99.90
40153;DHT22;26371;56.992;23.912;2023-04-06T10:00:32;4.20;99.90
40153;DHT22;26371;56.992;23.912;2023-04-06T10:03:04;4.20;99.90
40153;DHT22;26371;56.992;23.912;2023-04-06T10:05:37;4.20;99.90
40153;DHT22;26371;56.992;23.912;2023-04-06T10:08:06;4.30;99.90
40153;DHT22;26371;56.992;23.912;2023-04-06T10:10:37;4.30;99.90
40153;DHT22;26371;56.992;23.912;2023-04-06T10:13:05;4.40;99.90
40153;DHT22;26371;56.992;23.912;2023-04-06T10:15:35;4.40;99.90
40153;DHT22;26371;56.992;23.912;2023-04-06T10:18:06;4.40;99.90
40153;DHT22;26371;56.992;23.912;2023-04-06T10:20:36;4.50;99.90
40153;DHT22;26371;56.992;23.912;2023-04-06T10:23:08;4.50;99.90
40153;DHT22;26371;56.992;23.912;2023-04-06T10:25:37;4.60;99.90
40153;DHT22;26371;56.992;23.912;2023-04-06T10:28:06;4.60;99.90
40153;DHT22;26371;56.992;23.912;2023-04-06T10:30:41;4.60;99.90
40153;DHT22;26371;56.992;23.912;2023-04-06T10:33:13;4.70;99.90
40153;DHT22;26371;56.992;23.912;2023-04-06T10:35:42;4.80;99.90
40153;DHT22;26371;56.992;23.912;2023-04-06T10:38:10;4.80;99.90
40153;DHT22;26371;56.992;23.912;2023-04-06T10:40:41;4.80;99.90
40153;DHT22;26371;56.992;23.912;2023-04-06T10:43:12;4.80;99.90
40153;DHT22;26371;56.992;23.912;2023-04-06T10:45:42;4.80;99.90
40153;DHT22;26371;56.992;23.912;2023-04-06T10:48:13;4.80;99.90
40153;DHT22;26371;56.992;23.912;2023-04-06T10:50:43;4.80;99.90
40153;DHT22;26371;56.992;23.912;2023-04-06T10:53:19;4.80;99.90
40153;DHT22;26371;56.992;23.912;2023-04-06T10:55:49;4.80;99.90
40153;DHT22;26371;56.992;23.912;2023-04-06T10:58:17;4.80;99.90
40153;DHT22;26371;56.992;23.912;2023-04-06T11:00:47;4.70;99.90
40153;DHT22;26371;56.992;23.912;2023-04-06T11:03:17;4.70;99.90
40153;DHT22;26371;56.992;23.912;2023-04-06T11:05:46;4.70;99.90
40153;DHT22;26371;56.992;23.912;2023-04-06T11:08:27;4.70;99.90
40153;DHT22;26371;56.992;23.912;2023-04-06T11:11:06;4.60;99.90
40153;DHT22;26371;56.992;23.912;2023-04-06T11:13:38;4.60;99.90
40153;DHT22;26371;56.992;23.912;2023-04-06T11:16:13;4.60;99.90
40153;DHT22;26371;56.992;23.912;2023-04-06T11:18:48;4.60;99.90
40153;DHT22;26371;56.992;23.912;2023-04-06T11:21:17;4.60;99.90
40153;DHT22;26371;56.992;23.912;2023-04-06T11:23:45;4.60;99.90
40153;DHT22;26371;56.992;23.912;2023-04-06T11:26:14;4.70;99.90
40153;DHT22;26371;56.992;23.912;2023-04-06T11:28:42;4.70;99.90
40153;DHT22;26371;56.992;23.912;2023-04-06T11:31:12;4.70;99.90
40153;DHT22;26371;56.992;23.912;2023-04-06T11:33:41;4.70;99.90
40153;DHT22;26371;56.992;23.912;2023-04-06T11:36:09;4.80;99.90
40153;DHT22;26371;56.992;23.912;2023-04-06T11:38:40;4.80;99.90
40153;DHT22;26371;56.992;23.912;2023-04-06T11:41:09;4.70;99.90
40153;DHT22;26371;56.992;23.912;2023-04-06T11:43:37;4.80;99.90
40153;DHT22;26371;56.992;23.912;2023-04-06T11:46:05;4.80;99.90
40153;DHT22;26371;56.992;23.912;2023-04-06T11:48:44;4.80;99.90
40153;DHT22;26371;56.992;23.912;2023-04-06T11:51:20;4.80;99.90
40153;DHT22;26371;56.992;23.912;2023-04-06T11:53:49;4.80;99.90
40153;DHT22;26371;56.992;23.912;2023-04-06T11:56:24;4.80;99.90
40153;DHT22;26371;56.992;23.912;2023-04-06T11:58:54;4.80;99.90
40153;DHT22;26371;56.992;23.912;2023-04-06T12:01:23;4.80;99.90
40153;DHT22;26371;56.992;23.912;2023-04-06T12:03:53;4.80;99.90
40153;DHT22;26371;56.992;23.912;2023-04-06T12:06:22;4.80;99.90
40153;DHT22;26371;56.992;23.912;2023-04-06T12:08:52;4.80;99.90
40153;DHT22;26371;56.992;23.912;2023-04-06T12:11:21;4.80;99.90
40153;DHT22;26371;56.992;23.912;2023-04-06T12:13:50;4.80;99.90
40153;DHT22;26371;56.992;23.912;2023-04-06T12:16:18;4.80;99.90
40153;DHT22;26371;56.992;23.912;2023-04-06T12:18:47;4.80;99.90
40153;DHT22;26371;56.992;23.912;2023-04-06T12:21:18;4.80;99.90
40153;DHT22;26371;56.992;23.912;2023-04-06T12:23:49;4.80;99.90
40153;DHT22;26371;56.992;23.912;2023-04-06T12:26:18;4.80;99.90
40153;DHT22;26371;56.992;23.912;2023-04-06T12:28:46;4.90;99.90
40153;DHT22;26371;56.992;23.912;2023-04-06T12:31:15;4.90;99.90
40153;DHT22;26371;56.992;23.912;2023-04-06T12:33:46;4.90;99.90
40153;DHT22;26371;56.992;23.912;2023-04-06T12:36:17;5.00;99.90
40153;DHT22;26371;56.992;23.912;2023-04-06T12:38:47;5.00;99.90
40153;DHT22;26371;56.992;23.912;2023-04-06T12:41:15;5.00;99.90
40153;DHT22;26371;56.992;23.912;2023-04-06T12:43:44;5.10;99.90
40153;DHT22;26371;56.992;23.912;2023-04-06T12:46:13;5.10;99.90
40153;DHT22;26371;56.992;23.912;2023-04-06T12:48:41;5.10;99.90
40153;DHT22;26371;56.992;23.912;2023-04-06T12:51:10;5.10;99.90
40153;DHT22;26371;56.992;23.912;2023-04-06T12:53:40;5.10;99.90
40153;DHT22;26371;56.992;23.912;2023-04-06T12:56:12;5.10;99.90
40153;DHT22;26371;56.992;23.912;2023-04-06T12:58:40;5.10;99.90
40153;DHT22;26371;56.992;23.912;2023-04-06T13:01:09;5.10;99.90
40153;DHT22;26371;56.992;23.912;2023-04-06T13:03:40;5.10;99.90
40153;DHT22;26371;56.992;23.912;2023-04-06T13:06:08;5.10;99.90
40153;DHT22;26371;56.992;23.912;2023-04-06T13:08:37;5.10;99.90
40153;DHT22;26371;56.992;23.912;2023-04-06T13:11:08;5.10;99.90
40153;DHT22;26371;56.992;23.912;2023-04-06T13:13:37;5.10;99.90
40153;DHT22;26371;56.992;23.912;2023-04-06T13:16:06;5.10;99.90
40153;DHT22;26371;56.992;23.912;2023-04-06T13:18:36;5.20;99.90
40153;DHT22;26371;56.992;23.912;2023-04-06T13:21:06;5.20;99.90
40153;DHT22;26371;56.992;23.912;2023-04-06T13:23:34;5.20;99.90
40153;DHT22;26371;56.992;23.912;2023-04-06T13:26:03;5.20;99.90
40153;DHT22;26371;56.992;23.912;2023-04-06T13:28:34;5.20;99.90
40153;DHT22;26371;56.992;23.912;2023-04-06T13:31:04;5.10;99.90
40153;DHT22;26371;56.992;23.912;2023-04-06T13:33:33;5.10;99.90
40153;DHT22;26371;56.992;23.912;2023-04-06T13:36:02;5.10;99.90
40153;DHT22;26371;56.992;23.912;2023-04-06T13:38:30;5.10;99.90
40153;DHT22;26371;56.992;23.912;2023-04-06T13:41:00;5.10;99.90
40153;DHT22;26371;56.992;23.912;2023-04-06T13:43:29;5.10;99.90
40153;DHT22;26371;56.992;23.912;2023-04-06T13:45:58;5.10;99.90
40153;DHT22;26371;56.992;23.912;2023-04-06T13:48:28;5.20;99.90
40153;DHT22;26371;56.992;23.912;2023-04-06T13:50:57;5.20;99.90
40153;DHT22;26371;56.992;23.912;2023-04-06T13:53:25;5.30;99.90
40153;DHT22;26371;56.992;23.912;2023-04-06T13:55:53;5.30;99.90
40153;DHT22;26371;56.992;23.912;2023-04-06T13:58:22;5.30;99.90
40153;DHT22;26371;56.992;23.912;2023-04-06T14:00:50;5.30;99.90
40153;DHT22;26371;56.992;23.912;2023-04-06T14:03:21;5.40;99.90
40153;DHT22;26371;56.992;23.912;2023-04-06T14:05:50;5.30;99.90
40153;DHT22;26371;56.992;23.912;2023-04-06T14:08:18;5.30;99.90
40153;DHT22;26371;56.992;23.912;2023-04-06T14:13:16;5.40;99.90
40153;DHT22;26371;56.992;23.912;2023-04-06T14:15:45;5.40;99.90
40153;DHT22;26371;56.992;23.912;2023-04-06T14:18:14;5.40;99.90
40153;DHT22;26371;56.992;23.912;2023-04-06T14:20:44;5.40;99.90
40153;DHT22;26371;56.992;23.912;2023-04-06T14:23:12;5.40;99.90
40153;DHT22;26371;56.992;23.912;2023-04-06T14:25:40;5.40;99.90
40153;DHT22;26371;56.992;23.912;2023-04-06T14:28:09;5.40;99.90
40153;DHT22;26371;56.992;23.912;2023-04-06T14:30:37;5.40;99.90
40153;DHT22;26371;56.992;23.912;2023-04-06T14:33:06;5.40;99.90
40153;DHT22;26371;56.992;23.912;2023-04-06T14:35:37;5.40;99.90
40153;DHT22;26371;56.992;23.912;2023-04-06T14:38:07;5.40;99.90
40153;DHT22;26371;56.992;23.912;2023-04-06T14:40:35;5.40;99.90
40153;DHT22;26371;56.992;23.912;2023-04-06T14:43:04;5.40;99.90
40153;DHT22;26371;56.992;23.912;2023-04-06T14:45:32;5.40;99.90
40153;DHT22;26371;56.992;23.912;2023-04-06T14:48:01;5.40;99.90
40153;DHT22;26371;56.992;23.912;2023-04-06T14:50:29;5.40;99.90
40153;DHT22;26371;56.992;23.912;2023-04-06T14:52:58;5.40;99.90
40153;DHT22;26371;56.992;23.912;2023-04-06T14:55:28;5.40;99.90
40153;DHT22;26371;56.992;23.912;2023-04-06T14:57:56;5.40;99.90
40153;DHT22;26371;56.992;23.912;2023-04-06T15:00:25;5.40;99.90
40153;DHT22;26371;56.992;23.912;2023-04-06T15:02:53;5.40;99.90
40153;DHT22;26371;56.992;23.912;2023-04-06T15:05:21;5.40;99.90
40153;DHT22;26371;56.992;23.912;2023-04-06T15:07:50;5.40;99.90
40153;DHT22;26371;56.992;23.912;2023-04-06T15:10:18;5.40;99.90
40153;DHT22;26371;56.992;23.912;2023-04-06T15:12:48;5.40;99.90
40153;DHT22;26371;56.992;23.912;2023-04-06T15:15:16;5.40;99.90
40153;DHT22;26371;56.992;23.912;2023-04-06T15:17:45;5.40;99.90
40153;DHT22;26371;56.992;23.912;2023-04-06T15:20:13;5.40;99.90
40153;DHT22;26371;56.992;23.912;2023-04-06T15:22:41;5.40;99.90
40153;DHT22;26371;56.992;23.912;2023-04-06T15:25:10;5.40;99.90
40153;DHT22;26371;56.992;23.912;2023-04-06T15:27:38;5.40;99.90
40153;DHT22;26371;56.992;23.912;2023-04-06T15:30:08;5.40;99.90
40153;DHT22;26371;56.992;23.912;2023-04-06T15:32:37;5.40;99.90
40153;DHT22;26371;56.992;23.912;2023-04-06T15:35:08;5.40;99.90
40153;DHT22;26371;56.992;23.912;2023-04-06T15:37:37;5.40;99.90
40153;DHT22;26371;56.992;23.912;2023-04-06T15:40:06;5.40;99.90
40153;DHT22;26371;56.992;23.912;2023-04-06T15:42:35;5.30;99.90
40153;DHT22;26371;56.992;23.912;2023-04-06T15:45:03;5.30;99.90
40153;DHT22;26371;56.992;23.912;2023-04-06T15:47:33;5.30;99.90
40153;DHT22;26371;56.992;23.912;2023-04-06T15:50:01;5.30;99.90
40153;DHT22;26371;56.992;23.912;2023-04-06T15:52:30;5.30;99.90
40153;DHT22;26371;56.992;23.912;2023-04-06T15:54:58;5.30;99.90